Time;durP1;ratioP1;P1;durP2;ratioP2;P2;SDS_P1;SDS_P2;PMS_P1;PMS_P2;Temp;Humidity;BMP_temperature;BMP_pressure;BME280_temperature;BME280_humidity;BME280_pressure;Samples;Min_cycle;Max_cycle;Signal;HPM_P1;HPM_P2
2021/07/10 00:01:52;;;;;;;0.35;0.35;;;;;;;17.11;69.31;98859.88;262812;1087;22764;-73
2021/07/10 00:07:04;;;;;;;1.43;0.37;;;;;;;17.06;69.27;98857.36;262801;1087;22776;-72
2021/07/10 00:12:09;;;;;;;1.85;0.50;;;;;;;17.01;69.28;98860.25;262897;1086;22766;-72
2021/07/10 00:17:16;;;;;;;8.05;0.55;;;;;;;16.94;69.76;98871.59;262768;1087;22784;-73
2021/07/10 00:22:22;;;;;;;0.40;0.40;;;;;;;16.92;69.40;98879.26;263021;1087;22929;-72
2021/07/10 00:27:33;;;;;;;1.10;0.40;;;;;;;16.87;69.76;98884.82;262785;1085;22748;-73
2021/07/10 00:32:37;;;;;;;0.30;0.30;;;;;;;16.84;69.96;98899.79;262820;1087;26225;-73
2021/07/10 00:37:41;;;;;;;0.70;0.40;;;;;;;16.79;70.00;98902.70;262764;1087;22934;-73
2021/07/10 00:42:45;;;;;;;0.60;0.40;;;;;;;16.68;70.12;98920.42;262723;1086;22814;-73
2021/07/10 00:47:48;;;;;;;0.95;0.40;;;;;;;16.60;70.25;98908.51;262738;1087;22776;-73
2021/07/10 00:52:53;;;;;;;0.60;0.50;;;;;;;16.53;70.68;98892.00;262782;1087;22795;-72
2021/07/10 00:58:00;;;;;;;1.60;0.50;;;;;;;16.45;70.72;98899.02;262959;1087;22995;-72
2021/07/10 01:03:04;;;;;;;0.87;0.60;;;;;;;16.37;71.32;98903.36;262733;1087;22763;-72
2021/07/10 01:08:17;;;;;;;1.80;0.60;;;;;;;16.26;72.35;98912.94;262740;1089;25977;-73
2021/07/10 01:13:25;;;;;;;1.70;0.45;;;;;;;16.16;72.11;98914.08;262743;1089;22839;-73
2021/07/10 01:18:29;;;;;;;1.70;0.60;;;;;;;16.07;72.58;98910.59;262833;1088;25421;-73
2021/07/10 01:23:47;;;;;;;0.40;0.30;;;;;;;16.00;72.74;98905.66;262687;1089;25983;-73
2021/07/10 01:28:51;;;;;;;3.60;0.75;;;;;;;15.96;72.94;98915.53;262769;1087;22921;-73
2021/07/10 01:33:55;;;;;;;1.45;0.50;;;;;;;15.91;73.13;98918.41;262758;1087;22776;-73
2021/07/10 01:38:59;;;;;;;0.40;0.40;;;;;;;15.87;73.45;98923.66;262898;1085;25857;-73
2021/07/10 01:44:02;;;;;;;1.37;0.50;;;;;;;15.85;73.47;98917.79;263187;1087;22822;-72
2021/07/10 01:49:06;;;;;;;0.40;0.40;;;;;;;15.87;73.68;98922.87;262878;1088;23169;-72
2021/07/10 01:54:10;;;;;;;2.87;0.60;;;;;;;15.88;73.64;98922.55;263064;1085;22787;-73
2021/07/10 01:59:13;;;;;;;0.60;0.50;;;;;;;15.77;73.73;98925.84;262923;1087;25954;-73
2021/07/10 02:04:18;;;;;;;1.40;0.70;;;;;;;15.72;73.99;98922.22;262854;1087;25450;-73
2021/07/10 02:09:22;;;;;;;0.85;0.40;;;;;;;15.73;73.93;98941.91;262670;1087;22777;-73
2021/07/10 02:14:43;;;;;;;1.30;0.55;;;;;;;15.74;74.50;98938.11;262729;1087;22808;-73
2021/07/10 02:19:46;;;;;;;1.20;0.50;;;;;;;15.71;74.12;98919.81;262864;1087;22759;-72
2021/07/10 02:24:54;;;;;;;0.90;0.67;;;;;;;15.65;74.23;98915.70;262778;1087;25858;-72
2021/07/10 02:29:58;;;;;;;0.95;0.50;;;;;;;15.62;74.44;98921.74;262761;1087;22787;-73
2021/07/10 02:35:04;;;;;;;1.85;0.60;;;;;;;15.59;74.41;98915.06;262757;1087;23596;-73
2021/07/10 02:40:10;;;;;;;0.50;0.50;;;;;;;15.51;74.38;98924.73;263120;1087;22809;-73
2021/07/10 02:45:16;;;;;;;1.30;0.30;;;;;;;15.45;74.57;98927.94;262849;1087;27500;-73
2021/07/10 02:50:32;;;;;;;1.15;0.30;;;;;;;15.44;74.87;98924.42;262762;1087;22762;-73
2021/07/10 02:55:38;;;;;;;0.65;0.40;;;;;;;15.45;74.87;98936.81;262725;1087;22779;-73
2021/07/10 03:01:15;;;;;;;0.65;0.55;;;;;;;15.42;75.08;98931.25;262839;1085;22770;-72
2021/07/10 03:06:38;;;;;;;;;;;;;;;;;;;;;
2021/07/10 03:17:16;;;;;;;1.00;0.80;;;;;;;15.65;75.64;98937.30;262966;1085;25852;-73
2021/07/10 03:29:43;;;;;;;;;;;;;;;;;;;;;
2021/07/10 03:36:07;;;;;;;;;;;;;;;16.08;75.15;98941.91;262506;1085;26232;-71
2021/07/10 03:42:27;;;;;;;1.00;0.70;;;;;;;16.20;75.09;98957.45;262763;1085;21450;-72
2021/07/10 03:47:56;;;;;;;0.75;0.75;;;;;;;16.28;75.05;98959.34;262773;1087;22776;-70
2021/07/10 03:53:31;;;;;;;0.70;0.70;;;;;;;16.32;74.52;98954.88;262729;1087;26002;-73
2021/07/10 03:58:35;;;;;;;0.90;0.50;;;;;;;16.39;75.15;98960.58;262794;1086;24339;-73
2021/07/10 04:03:39;;;;;;;0.60;0.60;;;;;;;16.50;75.14;98960.25;262877;1086;26060;-73
2021/07/10 04:08:51;;;;;;;0.80;0.73;;;;;;;16.62;75.06;98951.45;262833;1087;23046;-73
2021/07/10 04:13:58;;;;;;;1.55;0.70;;;;;;;16.85;75.06;98957.41;262732;1087;23678;-73
2021/07/10 04:19:13;;;;;;;0.70;0.70;;;;;;;16.97;74.47;98965.67;262817;1086;22862;-73
2021/07/10 04:24:17;;;;;;;2.25;0.80;;;;;;;16.98;74.47;98977.27;262740;1087;22778;-73
2021/07/10 04:29:22;;;;;;;1.80;0.60;;;;;;;16.92;74.25;98977.45;262815;1086;22744;-73
2021/07/10 04:34:28;;;;;;;2.45;0.60;;;;;;;16.90;74.25;98978.89;262746;1086;22787;-72
2021/07/10 04:39:35;;;;;;;1.45;0.60;;;;;;;16.87;74.42;98980.33;262856;1085;22787;-73
2021/07/10 06:55:13;;;;;;;1.08;1.00;;;;;;;20.09;67.06;99063.48;262300;1093;22781;-75
2021/07/10 07:00:35;;;;;;;1.20;1.10;;;;;;;20.51;65.87;99057.64;261756;1092;22934;-74
2021/07/10 07:05:39;;;;;;;0.70;0.70;;;;;;;20.59;63.54;99064.05;261805;1093;22813;-74
2021/07/10 07:10:43;;;;;;;0.73;0.70;;;;;;;20.31;63.50;99059.44;261668;1092;25833;-74
2021/07/10 07:15:48;;;;;;;0.95;0.88;;;;;;;20.28;63.29;99048.45;261537;1093;22823;-72
2021/07/10 07:20:59;;;;;;;0.70;0.70;;;;;;;20.23;63.19;99057.66;261628;1092;22954;-72
2021/07/10 07:26:10;;;;;;;0.85;0.63;;;;;;;20.30;63.47;99041.53;261669;1092;25986;-72
2021/07/10 07:31:29;;;;;;;0.50;0.50;;;;;;;20.41;62.91;99047.27;261786;1093;23225;-72
2021/07/10 07:36:36;;;;;;;1.00;0.60;;;;;;;20.64;62.92;99049.41;261735;1093;22809;-72
2021/07/10 07:41:40;;;;;;;0.60;0.60;;;;;;;20.67;61.81;99044.08;261821;1092;22787;-72
2021/07/10 07:46:44;;;;;;;0.40;0.40;;;;;;;20.78;61.07;99035.41;261578;1093;22801;-73
2021/07/10 07:51:50;;;;;;;1.65;0.85;;;;;;;20.84;60.93;99047.61;261568;1093;22930;-73
2021/07/10 07:56:54;;;;;;;0.60;0.60;;;;;;;20.91;61.18;99038.84;261555;1093;22779;-73
2021/07/10 08:02:01;;;;;;;0.70;0.70;;;;;;;21.41;60.41;99047.42;261538;1093;22783;-73
2021/07/10 08:07:05;;;;;;;1.03;0.80;;;;;;;21.76;59.02;99043.94;261677;1093;25509;-75
2021/07/10 08:12:10;;;;;;;1.35;0.70;;;;;;;21.85;58.48;99042.59;261604;1092;22791;-75
2021/07/10 08:17:16;;;;;;;0.75;0.60;;;;;;;21.83;57.57;99047.59;261748;1093;22929;-75
2021/07/10 08:22:20;;;;;;;0.75;0.60;;;;;;;21.98;57.14;99034.25;261779;1093;22773;-74
2021/07/10 08:27:39;;;;;;;1.37;0.80;;;;;;;22.15;57.15;99052.92;261783;1093;24307;-75
2021/07/10 08:33:00;;;;;;;0.50;0.50;;;;;;;22.32;56.45;99048.97;261655;1093;24320;-76
2021/07/10 08:38:04;;;;;;;0.60;0.60;;;;;;;22.68;55.59;99054.34;261817;1093;22776;-76
2021/07/10 08:43:08;;;;;;;2.75;0.95;;;;;;;22.88;55.61;99060.54;261634;1093;22782;-75
2021/07/10 08:48:23;;;;;;;0.90;0.90;;;;;;;23.24;55.23;99058.42;261682;1092;22853;-76
2021/07/10 08:53:26;;;;;;;0.70;0.70;;;;;;;23.38;53.95;99068.80;261553;1093;22922;-75
2021/07/10 08:58:38;;;;;;;0.70;0.70;;;;;;;23.12;53.73;99070.33;261546;1093;25989;-73
2021/07/10 09:10:39;;;;;;;0.80;0.80;;;;;;;23.27;53.30;99068.62;261537;1092;22827;-73
2021/07/10 09:15:45;;;;;;;0.70;0.70;;;;;;;23.38;52.81;99069.57;261743;1093;23517;-75
2021/07/10 09:20:56;;;;;;;0.83;0.70;;;;;;;23.63;53.13;99068.35;261744;1093;26254;-76
2021/07/10 09:27:11;;;;;;;;;;;;;;;;;;;;;
2021/07/10 09:33:36;;;;;;;1.10;0.90;;;;;;;24.53;52.17;99062.06;261945;1092;22745;-76
2021/07/10 09:38:58;;;;;;;2.75;1.78;;;;;;;24.83;51.18;99063.16;262018;1091;22808;-76
2021/07/10 09:44:41;;;;;;;0.60;0.60;;;;;;;24.74;49.67;99066.22;261648;1093;23356;-76
2021/07/10 09:50:37;;;;;;;2.10;1.58;;;;;;;24.48;49.79;99064.36;261696;1094;25983;-75
2021/07/10 09:56:49;;;;;;;;;;;;;;;;;;;;;
2021/07/10 10:02:22;;;;;;;0.60;0.60;;;;;;;24.37;49.61;99066.97;261657;1096;23087;-76
2021/07/10 10:08:25;;;;;;;0.50;0.50;;;;;;;24.36;49.42;99063.45;261609;1093;22757;-76
2021/07/10 10:13:46;;;;;;;1.00;1.00;;;;;;;24.23;49.60;99062.12;261825;1093;23722;-75
2021/07/10 10:19:26;;;;;;;0.70;0.70;;;;;;;24.51;48.94;99055.39;261759;1093;24026;-76
2021/07/10 10:25:01;;;;;;;1.70;1.55;;;;;;;24.85;48.67;99050.67;261610;1093;22755;-75
2021/07/10 10:30:57;;;;;;;1.28;0.60;;;;;;;24.90;47.81;99055.00;262335;1093;22934;-75
2021/07/10 10:36:08;;;;;;;0.80;0.80;;;;;;;24.83;48.09;99050.24;261602;1091;22825;-76
2021/07/10 10:41:13;;;;;;;1.13;1.10;;;;;;;24.82;47.20;99056.91;261646;1093;22913;-76
2021/07/10 10:47:12;;;;;;;1.18;0.90;;;;;;;25.09;47.42;99048.52;261853;1093;22760;-73
2021/07/10 10:53:09;;;;;;;;;;;;;;;25.33;45.60;99043.63;262248;1093;23804;-74
2021/07/10 10:59:28;;;;;;;0.30;0.30;;;;;;;25.30;46.69;99058.86;261922;1093;21463;-74
2021/07/10 11:04:55;;;;;;;0.43;0.43;;;;;;;25.16;46.15;99050.53;261803;1092;22830;-75
2021/07/10 11:10:03;;;;;;;1.25;0.40;;;;;;;25.32;46.69;99045.57;261588;1093;26258;-75
2021/07/10 11:15:26;;;;;;;1.18;0.60;;;;;;;25.64;45.95;99044.98;261608;1093;26692;-75
2021/07/10 11:21:06;;;;;;;;;;;;;;;;;;;;;
2021/07/10 11:26:31;;;;;;;0.45;0.45;;;;;;;26.02;45.45;99042.84;261447;1096;25902;-74
2021/07/10 11:32:16;;;;;;;1.10;1.00;;;;;;;26.27;44.50;99042.95;261567;1095;25896;-74
2021/07/10 11:37:31;;;;;;;1.40;1.30;;;;;;;26.10;43.99;99038.95;261170;1095;22794;-74
2021/07/10 11:42:49;;;;;;;1.30;1.20;;;;;;;25.81;44.17;99043.50;261119;1096;22846;-74
2021/07/10 11:48:22;;;;;;;1.03;1.03;;;;;;;25.49;43.81;99041.39;261083;1095;22776;-74
2021/07/10 11:53:31;;;;;;;0.95;0.95;;;;;;;25.66;44.42;99034.44;261134;1096;23023;-74
2021/07/10 11:58:37;;;;;;;0.70;0.60;;;;;;;25.78;44.20;99034.11;261545;1094;22836;-74
2021/07/10 12:03:56;;;;;;;1.15;1.00;;;;;;;25.87;44.16;99030.20;261757;1093;27448;-75
2021/07/10 12:09:04;;;;;;;1.10;0.95;;;;;;;25.91;43.86;99029.06;261753;1093;26324;-74
2021/07/10 12:14:55;;;;;;;0.70;0.70;;;;;;;26.34;44.42;99022.94;261618;1093;23024;-75
2021/07/10 12:20:05;;;;;;;;;;;;;;;27.00;44.14;99010.86;261738;1092;22776;-73
2021/07/10 12:25:15;;;;;;;0.60;0.60;;;;;;;27.19;43.33;99011.64;261546;1093;21461;-73
2021/07/10 12:30:41;;;;;;;0.83;0.80;;;;;;;26.80;42.49;99011.25;261641;1092;22782;-76
2021/07/10 12:36:09;;;;;;;1.38;0.90;;;;;;;26.26;43.33;99002.94;261626;1092;22821;-74
2021/07/10 12:41:49;;;;;;;2.18;1.20;;;;;;;26.39;44.28;99003.34;261474;1093;22770;-74
2021/07/10 12:47:13;;;;;;;3.73;3.30;;;;;;;26.72;43.48;98995.16;261544;1092;26297;-75
2021/07/10 12:53:10;;;;;;;;;;;;;;;;;;;;;
2021/07/10 12:58:41;;;;;;;0.90;0.90;;;;;;;26.67;43.46;98981.78;261540;1092;22769;-74
2021/07/10 13:03:50;;;;;;;1.93;1.83;;;;;;;26.77;42.96;98970.05;261650;1092;22828;-73
2021/07/10 13:08:58;;;;;;;0.70;0.70;;;;;;;26.52;42.82;98972.77;261530;1092;24344;-73
2021/07/10 13:14:03;;;;;;;0.70;0.70;;;;;;;26.33;42.36;98980.20;261456;1093;22799;-75
2021/07/10 13:19:08;;;;;;;0.60;0.60;;;;;;;26.15;42.86;98976.61;261560;1092;22969;-74
2021/07/10 13:24:15;;;;;;;0.80;0.80;;;;;;;26.04;42.68;98976.61;261502;1093;22782;-74
2021/07/10 13:29:21;;;;;;;1.10;0.93;;;;;;;26.20;43.42;98962.52;261733;1092;23078;-74
2021/07/10 13:34:29;;;;;;;0.70;0.70;;;;;;;25.95;43.19;98968.69;261716;1093;22772;-75
2021/07/10 13:39:48;;;;;;;1.30;0.85;;;;;;;25.76;43.15;98967.84;261550;1092;23407;-74
2021/07/10 13:45:22;;;;;;;0.60;0.60;;;;;;;25.64;43.79;98959.95;261461;1092;22870;-75
2021/07/10 13:58:41;;;;;;;;;;;;;;;;;;;;;
2021/07/10 14:20:03;;;;;;;1.20;1.10;;;;;;;25.44;43.64;98940.28;261243;1093;22817;-74
2021/07/10 14:27:11;;;;;;;0.90;0.87;;;;;;;25.55;43.45;98940.34;261066;1093;22726;-74
2021/07/10 14:33:45;;;;;;;0.97;0.97;;;;;;;25.66;42.99;98932.14;261109;1093;22778;-74
2021/07/10 14:54:14;;;;;;;0.90;0.85;;;;;;;25.88;42.69;98913.79;261086;1093;25871;-73
2021/07/10 15:01:19;;;;;;;0.93;0.93;;;;;;;25.72;43.26;98914.15;261294;1092;25545;-75
2021/07/10 15:08:06;;;;;;;1.40;1.30;;;;;;;25.75;43.08;98897.69;261015;1092;22760;-74
2021/07/10 15:15:05;;;;;;;;;;;;;;;;;;;;;
2021/07/10 15:21:05;;;;;;;1.20;1.07;;;;;;;25.78;43.63;98896.13;261345;1093;22814;-74
2021/07/10 15:27:30;;;;;;;;;;;;;;;;;;;;;
2021/07/10 15:47:59;;;;;;;1.00;1.00;;;;;;;25.45;43.72;98885.05;261150;1093;22876;-75
2021/07/10 16:08:34;;;;;;;;;;;;;;;;;;;;;
2021/07/10 16:15:37;;;;;;;;;;;;;;;;;;;;;
2021/07/10 16:50:41;;;;;;;;;;;;;;;;;;;;;
2021/07/10 17:04:40;;;;;;;1.05;1.05;;;;;;;24.85;44.87;98901.95;261219;1093;22934;-73
2021/07/10 17:11:08;;;;;;;0.93;0.93;;;;;;;24.76;45.38;98915.96;261316;1093;22776;-75
2021/07/10 17:17:46;;;;;;;1.10;1.00;;;;;;;25.86;45.94;98902.43;261428;1092;22931;-75
2021/07/10 17:24:00;;;;;;;;;;;;;;;;;;;;;
2021/07/10 17:30:04;;;;;;;;;;;;;;;;;;;;;
2021/07/10 17:36:20;;;;;;;1.60;1.50;;;;;;;30.49;38.87;98919.09;261431;1092;22773;-75
2021/07/10 17:42:17;;;;;;;5.43;1.85;;;;;;;30.67;38.09;98915.27;261517;1093;22921;-73
2021/07/10 17:48:13;;;;;;;1.70;1.60;;;;;;;29.63;37.90;98925.81;261391;1093;22809;-74
2021/07/10 17:54:55;;;;;;;2.03;1.80;;;;;;;27.68;38.88;98918.40;261467;1093;22802;-73
2021/07/10 18:00:54;;;;;;;1.85;1.75;;;;;;;26.30;40.87;98909.56;261496;1092;22821;-75
2021/07/10 18:06:11;;;;;;;1.90;1.80;;;;;;;25.38;41.91;98914.39;261459;1093;22837;-74
2021/07/10 18:12:46;;;;;;;2.85;2.20;;;;;;;24.49;43.51;98915.34;261331;1093;22776;-75
2021/07/10 18:19:15;;;;;;;2.58;2.20;;;;;;;23.82;45.13;98911.55;261390;1092;22788;-75
2021/07/10 18:32:49;;;;;;;1.88;1.78;;;;;;;22.75;47.47;98912.48;261348;1093;22820;-74
2021/07/10 18:46:04;;;;;;;;;;;;;;;;;;;;;
2021/07/10 18:53:06;;;;;;;;;;;;;;;;;;;;;
2021/07/10 19:06:32;;;;;;;2.55;1.98;;;;;;;20.92;51.16;98924.13;261263;1093;22792;-75
2021/07/10 19:13:31;;;;;;;4.27;2.60;;;;;;;20.64;52.21;98919.56;261320;1093;24336;-75
2021/07/10 19:27:29;;;;;;;4.18;3.40;;;;;;;20.15;53.02;98928.84;261158;1093;22798;-74
2021/07/10 19:34:31;;;;;;;;;;;;;;;;;;;;;
2021/07/10 19:41:21;;;;;;;5.37;3.47;;;;;;;19.75;54.14;98915.30;261166;1092;22773;-74
2021/07/10 19:48:06;;;;;;;;;;;;;;;;;;;;;
2021/07/10 19:54:11;;;;;;;3.40;3.10;;;;;;;19.52;55.43;98910.41;261241;1093;22799;-73
2021/07/10 19:59:54;;;;;;;3.00;2.80;;;;;;;19.42;55.72;98897.28;261389;1092;26289;-74
2021/07/10 20:06:29;;;;;;;2.90;2.53;;;;;;;19.29;55.74;98897.34;261346;1093;22776;-73
2021/07/10 20:13:15;;;;;;;;;;;;;;;;;;;;;
2021/07/10 20:25:55;;;;;;;;;;;;;;;;;;;;;
2021/07/10 20:32:07;;;;;;;3.85;3.20;;;;;;;18.87;57.94;98900.33;261471;1093;26962;-74
2021/07/10 20:38:06;;;;;;;;;;;;;;;;;;;;;
2021/07/10 20:43:19;;;;;;;5.00;3.90;;;;;;;18.68;58.59;98905.51;261377;1093;22864;-73
2021/07/10 20:49:04;;;;;;;5.95;3.50;;;;;;;18.58;58.91;98893.19;261435;1093;22868;-74
2021/07/10 20:54:53;;;;;;;4.40;3.50;;;;;;;18.47;59.63;98895.58;261422;1093;22776;-73
2021/07/10 21:00:29;;;;;;;3.45;3.15;;;;;;;18.43;59.92;98900.87;261437;1093;23017;-74
2021/07/10 21:21:15;;;;;;;5.10;4.00;;;;;;;18.04;60.86;98894.92;261218;1092;22779;-74
2021/07/10 21:28:22;;;;;;;;;;;;;;;;;;;;;
2021/07/10 21:42:10;;;;;;;;;;;;;;;;;;;;;
2021/07/10 21:55:34;;;;;;;4.35;3.75;;;;;;;17.59;63.04;98880.19;261089;1092;22836;-74
2021/07/10 22:02:02;;;;;;;;;;;;;;;;;;;;;
2021/07/10 22:09:08;;;;;;;;;;;;;;;;;;;;;
2021/07/10 22:15:53;;;;;;;;;;;;;;;;;;;;;
2021/07/10 22:21:45;;;;;;;4.50;4.10;;;;;;;17.32;64.44;98857.17;261693;1093;27119;-73
2021/07/10 22:28:39;;;;;;;;;;;;;;;;;;;;;
2021/07/10 22:35:26;;;;;;;;;;;;;;;;;;;;;
2021/07/10 22:55:16;;;;;;;5.30;4.60;;;;;;;17.17;65.70;98833.41;261467;1093;22831;-74
2021/07/10 23:02:10;;;;;;;;;;;;;;;;;;;;;
2021/07/10 23:08:48;;;;;;;;;;;;;;;;;;;;;
2021/07/10 23:15:44;;;;;;;4.65;4.25;;;;;;;16.97;65.80;98810.63;261322;1093;22925;-73
2021/07/10 23:22:23;;;;;;;;;;;;;;;;;;;;;
2021/07/10 23:28:52;;;;;;;;;;;;;;;;;;;;;
2021/07/10 23:42:34;;;;;;;4.77;4.37;;;;;;;16.71;66.51;98806.16;260956;1093;22960;-74
